Time;durP1;ratioP1;P1;durP2;ratioP2;P2;SDS_P1;SDS_P2;PMS_P1;PMS_P2;Temp;Humidity;BMP_temperature;BMP_pressure;BME280_temperature;BME280_humidity;BME280_pressure;Samples;Min_cycle;Max_cycle;Signal;HPM_P1;HPM_P2
2022/06/09 00:01:05;;;;;;;;;1.00;1.00;;;;;17.57;55.73;100857.72;5034746;28;45313;-73
2022/06/09 00:03:42;;;;;;;;;3.00;2.00;;;;;17.47;55.64;100849.94;5031803;28;45369;-74
2022/06/09 00:06:09;;;;;;;;;6.67;2.00;;;;;17.82;55.95;100899.47;5037998;28;45306;-75
2022/06/09 00:08:38;;;;;;;;;0.00;0.00;;;;;17.89;55.58;100916.50;5031981;28;46880;-75
2022/06/09 00:11:06;;;;;;;;;2.00;2.00;;;;;17.87;56.03;100942.75;5017692;28;45181;-75
2022/06/09 00:13:34;;;;;;;;;0.33;0.33;;;;;17.50;55.96;100881.00;5031790;28;45392;-75
2022/06/09 00:16:00;;;;;;;;;2.67;1.67;;;;;17.69;55.61;100919.97;5022884;28;45171;-72
2022/06/09 00:18:27;;;;;;;;;1.00;1.00;;;;;17.80;55.97;100939.13;5025232;28;45897;-73
2022/06/09 00:20:52;;;;;;;;;3.00;3.00;;;;;17.80;55.88;100939.13;5032673;28;45490;-76
2022/06/09 00:23:18;;;;;;;;;2.67;1.33;;;;;17.23;55.80;100858.28;5042852;28;45281;-73
2022/06/09 00:25:45;;;;;;;;;1.00;1.00;;;;;17.60;56.27;100911.94;5033035;28;45505;-73
2022/06/09 00:28:10;;;;;;;;;0.67;0.67;;;;;17.69;56.01;100941.47;5026826;28;46706;-75
2022/06/09 00:30:36;;;;;;;;;2.00;1.00;;;;;17.68;56.04;100961.31;5030627;28;45400;-75
2022/06/09 00:33:01;;;;;;;;;2.67;2.67;;;;;17.59;56.18;100944.38;5045644;28;45481;-74
2022/06/09 00:35:27;;;;;;;;;3.67;2.00;;;;;17.65;56.08;100967.88;5017786;28;45447;-74
2022/06/09 00:37:52;;;;;;;;;4.67;1.00;;;;;17.63;56.10;100967.22;5017458;28;47504;-74
2022/06/09 00:40:18;;;;;;;;;1.00;1.00;;;;;17.31;56.48;100918.16;5017431;28;45576;-75
2022/06/09 00:42:43;;;;;;;;;7.00;2.33;;;;;16.99;56.44;100867.41;5017182;28;45475;-74
2022/06/09 00:45:22;;;;;;;;;3.00;2.00;;;;;17.54;56.70;100968.31;5032704;28;45317;-75
2022/06/09 00:47:50;;;;;;;;;2.00;2.00;;;;;17.10;56.44;100907.28;5030330;28;45659;-74
2022/06/09 00:50:19;;;;;;;;;7.33;2.67;;;;;17.36;56.71;100955.22;5018588;28;45518;-73
2022/06/09 00:52:51;;;;;;;;;4.67;2.00;;;;;16.98;56.43;100906.03;5017338;28;45340;-76
2022/06/09 00:55:20;;;;;;;;;4.00;2.00;;;;;16.33;56.78;100794.66;5017304;28;45484;-75
2022/06/09 00:57:57;;;;;;;;;5.00;1.33;;;;;17.33;56.95;100967.16;5021958;28;46402;-73
2022/06/09 01:00:27;;;;;;;;;44.33;39.67;;;;;16.93;56.84;100906.59;5025727;28;45443;-74
2022/06/09 01:02:56;;;;;;;;;1.33;1.33;;;;;17.25;57.01;100943.06;5031531;28;45557;-76
2022/06/09 01:05:26;;;;;;;;;3.00;2.00;;;;;16.75;57.29;100873.00;5025755;28;45270;-75
2022/06/09 01:07:55;;;;;;;;;7.00;3.00;;;;;17.15;57.20;100945.16;5043162;28;47213;-74
2022/06/09 01:10:21;;;;;;;;;2.67;2.67;;;;;17.36;56.75;100978.56;5020391;28;45617;-74
2022/06/09 01:12:47;;;;;;;;;3.00;2.00;;;;;17.26;57.06;100960.88;5018079;28;45587;-75
2022/06/09 01:15:15;;;;;;;;;2.67;2.67;;;;;17.22;57.39;100956.88;5025994;28;45277;-73
2022/06/09 01:18:17;;;;;;;;;2.00;2.00;;;;;17.36;57.38;100973.19;5034545;28;48173;-74
2022/06/09 01:21:20;;;;;;;;;1.67;1.67;;;;;17.28;57.51;100969.56;5022834;28;45468;-73
2022/06/09 01:24:23;;;;;;;;;2.67;2.00;;;;;17.31;57.55;100977.25;5029579;28;45504;-73
2022/06/09 01:27:09;;;;;;;;;2.67;2.00;;;;;17.28;57.72;100977.63;5026468;28;45691;-73
2022/06/09 01:29:35;;;;;;;;;2.00;2.00;;;;;17.29;57.63;100979.31;5034566;28;46492;-74
2022/06/09 01:32:09;;;;;;;;;4.33;4.00;;;;;16.82;57.83;100911.53;5028584;28;45297;-72
2022/06/09 01:35:05;;;;;;;;;2.67;2.67;;;;;17.27;57.83;100980.50;5016512;28;45764;-74
2022/06/09 01:37:38;;;;;;;;;1.33;1.00;;;;;15.10;57.80;100661.59;5031492;28;45174;-74
2022/06/09 01:40:07;;;;;;;;;1.33;1.00;;;;;16.91;57.81;100948.06;5031618;28;46425;-75
2022/06/09 01:42:39;;;;;;;;;3.67;2.00;;;;;16.84;57.41;100944.44;5024219;28;45590;-74
2022/06/09 01:45:15;;;;;;;;;2.00;1.00;;;;;17.00;58.08;100965.78;5022903;28;45591;-73
2022/06/09 01:47:47;;;;;;;;;2.00;1.00;;;;;17.06;58.23;100999.16;5028006;28;45621;-74
2022/06/09 01:50:20;;;;;;;;;2.33;1.67;;;;;16.68;58.14;100942.72;5016359;28;45850;-74
2022/06/09 01:52:47;;;;;;;;;2.00;1.00;;;;;17.00;58.23;100980.03;5024444;28;45202;-72
2022/06/09 01:55:18;;;;;;;;;4.67;4.33;;;;;16.80;58.38;100953.84;5016401;28;45376;-75
2022/06/09 01:57:48;;;;;;;;;3.00;2.00;;;;;16.92;58.40;100977.44;5036352;28;45317;-72
2022/06/09 02:00:16;;;;;;;;;4.67;3.33;;;;;17.09;58.88;101017.59;5034516;28;46068;-74
2022/06/09 02:02:58;;;;;;;;;5.00;1.00;;;;;17.10;58.38;101001.31;5027870;28;45195;-73
2022/06/09 02:05:28;;;;;;;;;1.00;1.00;;;;;17.11;58.22;101008.34;5019874;28;45281;-74
2022/06/09 02:07:57;;;;;;;;;1.67;1.67;;;;;16.91;58.39;100991.03;5031199;28;45513;-76
2022/06/09 02:10:37;;;;;;;;;3.00;1.33;;;;;17.04;58.31;101018.16;5015478;28;47955;-75
2022/06/09 02:13:10;;;;;;;;;3.00;2.00;;;;;16.96;58.36;101005.59;5025249;28;45316;-73
2022/06/09 02:15:41;;;;;;;;;3.33;2.00;;;;;16.21;58.42;100881.09;5021534;28;45487;-76
2022/06/09 02:18:10;;;;;;;;;4.33;3.00;;;;;16.97;58.72;101011.78;5031839;28;45596;-75
2022/06/09 02:20:42;;;;;;;;;3.33;2.00;;;;;16.90;58.47;101011.69;5016379;28;46290;-74
2022/06/09 02:23:09;;;;;;;;;2.00;1.33;;;;;16.97;58.85;101019.84;5029588;28;45226;-74
2022/06/09 02:25:34;;;;;;;;;1.67;1.67;;;;;17.00;58.47;101027.56;5018099;28;45609;-75
2022/06/09 02:27:59;;;;;;;;;2.67;1.00;;;;;16.95;58.55;101029.94;5016639;28;45266;-73
2022/06/09 02:30:25;;;;;;;;;4.00;3.00;;;;;16.88;58.58;101002.97;5025006;28;52466;-74
2022/06/09 02:32:50;;;;;;;;;3.33;1.00;;;;;16.20;58.40;100885.63;5019685;28;45159;-74
2022/06/09 02:35:16;;;;;;;;;4.00;1.67;;;;;16.97;58.43;101033.28;5019363;28;45250;-73
2022/06/09 02:37:41;;;;;;;;;3.67;2.33;;;;;16.93;58.55;101032.81;5027936;28;45211;-76
2022/06/09 02:40:07;;;;;;;;;3.00;3.00;;;;;15.94;58.65;100859.13;5037551;28;46925;-75
2022/06/09 02:42:32;;;;;;;;;2.00;2.00;;;;;16.90;58.72;101021.59;5031384;28;45490;-74
2022/06/09 02:44:58;;;;;;;;;4.00;3.00;;;;;16.82;58.31;101013.56;5030021;28;45530;-74
2022/06/09 02:47:23;;;;;;;;;3.33;2.00;;;;;16.88;58.82;101031.69;5038014;28;45439;-73
2022/06/09 02:49:49;;;;;;;;;5.33;3.67;;;;;16.72;58.91;100995.88;5021684;28;45534;-75
2022/06/09 02:52:14;;;;;;;;;1.67;1.33;;;;;16.85;58.76;101030.19;5026297;28;45867;-76
2022/06/09 02:54:40;;;;;;;;;3.00;3.00;;;;;15.67;58.71;100839.00;5026632;28;45499;-75
2022/06/09 02:57:06;;;;;;;;;1.00;1.00;;;;;16.02;59.02;100903.84;5030232;28;45396;-73
2022/06/09 02:59:31;;;;;;;;;3.33;2.33;;;;;16.62;59.20;101003.28;5027546;28;45925;-74
2022/06/09 03:01:57;;;;;;;;;8.67;5.33;;;;;16.64;59.16;101000.44;5035030;28;45541;-75
2022/06/09 03:04:22;;;;;;;;;3.67;3.00;;;;;16.75;59.24;101024.19;5029427;28;45908;-74
2022/06/09 03:06:47;;;;;;;;;3.00;3.00;;;;;16.52;59.44;100996.47;5029896;28;45523;-74
2022/06/09 03:09:13;;;;;;;;;3.67;3.00;;;;;16.45;59.36;100979.41;5020122;28;46376;-73
2022/06/09 03:11:38;;;;;;;;;2.33;2.33;;;;;15.65;59.21;100848.22;5032322;28;45518;-74
2022/06/09 03:14:03;;;;;;;;;3.67;2.33;;;;;16.49;59.21;100992.28;5021187;28;45501;-74
2022/06/09 03:16:29;;;;;;;;;3.33;2.00;;;;;16.72;59.27;101033.44;5032919;28;45797;-73
2022/06/09 03:18:54;;;;;;;;;2.33;1.67;;;;;16.69;59.43;101024.91;5018245;28;46666;-73
2022/06/09 03:21:20;;;;;;;;;2.33;2.33;;;;;16.63;59.46;101026.44;5033520;28;45578;-74
2022/06/09 03:23:45;;;;;;;;;2.67;2.67;;;;;16.29;59.71;100958.84;5018425;28;45638;-72
2022/06/09 03:26:11;;;;;;;;;5.67;4.00;;;;;16.58;60.00;101010.00;5026501;28;45329;-75
2022/06/09 03:28:36;;;;;;;;;3.67;2.00;;;;;16.67;59.94;101033.16;5026711;28;45222;-75
2022/06/09 03:31:01;;;;;;;;;3.67;2.67;;;;;16.65;59.77;101037.84;5024183;28;45272;-73
2022/06/09 03:33:27;;;;;;;;;3.67;2.00;;;;;16.61;59.62;101041.84;5029993;28;45337;-74
2022/06/09 03:35:52;;;;;;;;;7.00;7.00;;;;;16.35;60.09;101004.59;5018642;28;45588;-75
2022/06/09 03:38:18;;;;;;;;;3.67;3.67;;;;;16.42;60.24;101015.47;5025526;28;46792;-72
2022/06/09 03:40:44;;;;;;;;;5.00;3.33;;;;;16.59;60.41;101051.09;5026904;28;45217;-73
2022/06/09 03:43:09;;;;;;;;;5.00;2.67;;;;;16.42;60.17;101031.59;5018283;28;45309;-75
2022/06/09 03:45:35;;;;;;;;;3.00;3.00;;;;;16.24;60.14;100994.25;5020000;28;45404;-78
2022/06/09 03:48:01;;;;;;;;;4.67;1.67;;;;;16.11;60.25;100985.94;5028396;28;45299;-73
2022/06/09 03:50:29;;;;;;;;;4.33;3.67;;;;;16.59;60.38;101068.03;5034420;28;45349;-73
2022/06/09 03:52:55;;;;;;;;;7.33;3.33;;;;;16.42;60.19;101039.63;5036757;28;45517;-75
2022/06/09 03:55:21;;;;;;;;;5.00;5.00;;;;;16.38;60.12;101038.28;5030154;28;45531;-73
2022/06/09 03:57:47;;;;;;;;;2.67;2.67;;;;;16.43;60.16;101047.50;5037368;28;47099;-78
2022/06/09 04:00:19;;;;;;;;;5.00;4.00;;;;;15.97;60.24;100978.59;5018256;28;45157;-73
2022/06/09 04:02:45;;;;;;;;;5.00;1.67;;;;;16.38;60.23;101065.13;5017697;28;45550;-75
2022/06/09 04:05:11;;;;;;;;;2.00;2.00;;;;;16.45;60.50;101060.75;5016723;28;45448;-72
2022/06/09 04:07:36;;;;;;;;;2.00;1.67;;;;;16.60;60.30;101088.50;5030097;28;47438;-73
2022/06/09 04:10:02;;;;;;;;;3.00;2.00;;;;;16.50;59.75;101074.47;5030177;28;45321;-74
2022/06/09 04:12:27;;;;;;;;;5.67;4.67;;;;;15.77;60.42;100972.81;5016877;28;45295;-74
2022/06/09 04:14:53;;;;;;;;;6.33;3.00;;;;;16.15;60.49;101015.91;5048425;28;45432;-72
2022/06/09 04:17:18;;;;;;;;;6.00;5.33;;;;;16.59;60.32;101105.63;5018834;28;45531;-75
2022/06/09 04:19:44;;;;;;;;;4.00;4.00;;;;;16.63;60.43;101093.56;5019555;28;45467;-75
2022/06/09 04:22:10;;;;;;;;;4.00;3.00;;;;;16.10;60.12;101022.66;5017829;28;45233;-73
2022/06/09 04:24:35;;;;;;;;;5.00;2.33;;;;;15.69;60.26;100951.41;5025629;28;45591;-73
2022/06/09 04:27:02;;;;;;;;;3.67;3.33;;;;;16.60;60.08;101112.66;5021658;28;46351;-74
2022/06/09 04:29:27;;;;;;;;;2.33;2.00;;;;;16.54;60.20;101102.63;5050371;28;45607;-75
2022/06/09 04:31:53;;;;;;;;;3.00;2.67;;;;;16.39;60.23;101083.72;5036723;28;45361;-74
2022/06/09 04:34:18;;;;;;;;;3.00;2.00;;;;;16.64;60.05;101124.75;5028688;28;45551;-74
2022/06/09 04:36:43;;;;;;;;;4.00;2.00;;;;;16.46;60.18;101094.63;5024708;28;46364;-75
2022/06/09 04:39:09;;;;;;;;;3.00;3.00;;;;;16.12;60.01;101035.88;5023460;28;45360;-73
2022/06/09 04:41:36;;;;;;;;;4.00;3.00;;;;;16.68;59.73;101114.53;5028255;28;45593;-73
2022/06/09 04:44:02;;;;;;;;;3.33;3.00;;;;;16.00;59.95;101011.25;5030159;28;45347;-74
2022/06/09 04:46:28;;;;;;;;;5.00;4.00;;;;;16.62;60.19;101109.84;5017216;28;45944;-74
2022/06/09 04:48:53;;;;;;;;;5.00;5.00;;;;;16.47;59.70;101080.19;4997136;28;45461;-74
2022/06/09 04:51:20;;;;;;;;;3.00;3.00;;;;;16.81;59.83;101144.31;5005647;28;45512;-74
2022/06/09 04:53:47;;;;;;;;;2.67;2.33;;;;;16.63;59.99;101120.41;4996628;28;45370;-73
2022/06/09 04:56:14;;;;;;;;;6.33;3.00;;;;;16.49;59.44;101094.28;4997176;28;45535;-73
2022/06/09 04:58:40;;;;;;;;;4.00;3.00;;;;;16.88;59.68;101165.97;5012724;28;45488;-74
2022/06/09 05:01:07;;;;;;;;;4.00;4.00;;;;;16.91;59.55;101158.38;5006169;28;45207;-74
2022/06/09 05:03:34;;;;;;;;;4.67;4.67;;;;;16.32;59.51;101061.28;5012250;28;45181;-74
2022/06/09 05:05:59;;;;;;;;;7.33;4.33;;;;;16.73;59.45;101122.88;5016437;28;45244;-74
2022/06/09 05:08:25;;;;;;;;;6.00;5.00;;;;;16.80;59.50;101123.00;5012611;28;45548;-75
2022/06/09 05:10:51;;;;;;;;;4.33;1.67;;;;;16.85;59.12;101131.41;5009828;28;45479;-75
2022/06/09 05:13:18;;;;;;;;;4.33;2.67;;;;;17.07;58.95;101162.00;4988896;28;47215;-73
2022/06/09 05:15:55;;;;;;;;;4.00;3.00;;;;;17.11;58.78;101158.78;5016914;28;46384;-73
2022/06/09 05:18:23;;;;;;;;;3.00;2.00;;;;;17.15;58.72;101173.53;4988060;28;45259;-76
2022/06/09 05:20:50;;;;;;;;;3.00;2.00;;;;;16.40;58.60;101039.78;4996126;28;45344;-75
2022/06/09 05:23:18;;;;;;;;;6.00;4.00;;;;;17.08;58.88;101143.03;5005169;28;45481;-73
2022/06/09 05:25:44;;;;;;;;;3.67;2.67;;;;;17.28;58.68;101171.13;4996062;28;47978;-74
2022/06/09 05:28:10;;;;;;;;;6.00;3.00;;;;;17.34;58.49;101178.47;5007825;28;45384;-75
2022/06/09 05:30:36;;;;;;;;;5.00;2.33;;;;;17.39;58.40;101174.41;4996866;28;45315;-75
2022/06/09 05:33:02;;;;;;;;;3.00;3.00;;;;;17.33;58.28;101160.66;4997394;28;45336;-75
2022/06/09 05:35:28;;;;;;;;;18.00;16.67;;;;;17.20;58.04;101130.00;5009390;28;46608;-73
2022/06/09 05:46:06;;;;;;;;;5.00;4.00;;;;;17.92;56.64;101171.69;4999674;28;45587;-75
2022/06/09 05:48:33;;;;;;;;;5.00;3.00;;;;;18.13;56.46;101186.28;5009339;28;45496;-74
2022/06/09 05:50:59;;;;;;;;;5.67;4.00;;;;;18.44;56.47;101210.41;5010775;28;45319;-73
2022/06/09 05:53:25;;;;;;;;;6.33;4.00;;;;;18.06;55.01;101083.13;5005934;28;45376;-74
2022/06/09 05:55:50;;;;;;;;;4.33;3.00;;;;;18.97;54.76;101212.00;4996590;28;46365;-77
2022/06/09 05:58:16;;;;;;;;;4.33;4.00;;;;;18.84;54.29;101166.03;5004762;28;45370;-76
2022/06/09 06:00:42;;;;;;;;;4.33;3.33;;;;;18.97;54.29;101173.44;4998889;28;45283;-77
2022/06/09 06:03:08;;;;;;;;;5.00;3.33;;;;;19.36;52.55;101173.06;4979656;28;45556;-77
2022/06/09 06:08:18;;;;;;;;;4.00;4.00;;;;;20.52;50.54;101206.94;5000839;28;45307;-75
2022/06/09 06:10:43;;;;;;;;;5.00;2.00;;;;;20.74;49.52;101191.47;5001160;28;45940;-77
2022/06/09 06:13:09;;;;;;;;;5.00;3.00;;;;;20.88;49.77;101220.25;5002726;28;45479;-78
2022/06/09 06:15:34;;;;;;;;;7.67;7.67;;;;;20.88;50.02;101223.78;5022693;28;47269;-73
2022/06/09 06:18:03;;;;;;;;;4.00;4.00;;;;;20.75;49.69;101212.91;4983847;28;45551;-77
2022/06/09 06:20:30;;;;;;;;;3.00;3.00;;;;;20.69;49.47;101215.56;5004773;28;45429;-73
2022/06/09 06:22:55;;;;;;;;;6.33;3.00;;;;;20.44;49.07;101170.13;5003811;28;45513;-75
2022/06/09 06:25:22;;;;;;;;;5.33;2.33;;;;;20.80;49.01;101236.59;4992044;28;46193;-75
2022/06/09 06:27:47;;;;;;;;;5.00;5.00;;;;;20.19;49.69;101155.34;5001261;28;45580;-74
2022/06/09 06:30:13;;;;;;;;;3.00;3.00;;;;;20.35;49.55;101196.41;4999880;28;45358;-75
2022/06/09 06:32:38;;;;;;;;;4.00;4.00;;;;;20.62;49.69;101242.53;5016838;28;45652;-78
2022/06/09 06:35:04;;;;;;;;;4.67;4.00;;;;;20.72;49.58;101239.47;5008586;28;46483;-76
2022/06/09 06:37:30;;;;;;;;;8.33;8.33;;;;;20.63;49.74;101217.19;4998791;28;45865;-72
2022/06/09 06:39:55;;;;;;;;;6.67;6.33;;;;;21.07;49.08;101254.66;4998529;28;45257;-73
2022/06/09 06:42:20;;;;;;;;;9.00;5.67;;;;;21.68;48.28;101248.47;5019926;28;45490;-75
2022/06/09 06:44:46;;;;;;;;;6.00;4.00;;;;;22.24;46.62;101235.44;4998302;28;46232;-73
2022/06/09 06:47:11;;;;;;;;;4.33;3.00;;;;;22.25;45.09;101165.84;4997924;28;45530;-76
2022/06/09 06:49:40;;;;;;;;;7.33;5.00;;;;;22.92;44.35;101244.13;5028699;28;45745;-74
2022/06/09 06:52:06;;;;;;;;;4.00;4.00;;;;;23.60;43.44;101262.63;5038360;28;45510;-75
2022/06/09 06:54:31;;;;;;;;;5.00;4.00;;;;;24.04;42.66;101255.50;5030061;28;45682;-76
2022/06/09 06:56:57;;;;;;;;;4.00;4.00;;;;;24.48;41.72;101252.63;5028567;28;45428;-76
2022/06/09 06:59:22;;;;;;;;;6.33;5.00;;;;;25.15;40.40;101256.34;5030970;28;45600;-73
2022/06/09 07:01:47;;;;;;;;;3.67;3.67;;;;;25.51;39.52;101257.34;5037824;28;45453;-74
2022/06/09 07:04:13;;;;;;;;;4.33;4.33;;;;;25.58;38.74;101266.25;5018695;28;47791;-75
2022/06/09 07:06:38;;;;;;;;;7.33;5.00;;;;;23.58;39.35;100974.31;5019833;28;45384;-74
2022/06/09 07:09:04;;;;;;;;;7.67;3.00;;;;;25.33;38.75;101273.72;5029480;28;45315;-76
2022/06/09 07:11:29;;;;;;;;;4.67;4.67;;;;;25.12;39.25;101250.53;5035489;28;45316;-76
2022/06/09 07:13:55;;;;;;;;;4.33;4.33;;;;;25.15;39.24;101256.34;5038306;28;47518;-78
2022/06/09 07:16:20;;;;;;;;;5.00;3.67;;;;;25.45;37.85;101245.50;5055816;28;45243;-75
2022/06/09 07:18:46;;;;;;;;;3.67;3.33;;;;;25.37;37.20;101248.50;5037749;28;45366;-76
2022/06/09 07:21:13;;;;;;;;;7.67;5.00;;;;;25.41;38.27;101282.38;5018709;28;45611;-75
2022/06/09 07:23:39;;;;;;;;;4.67;4.67;;;;;25.77;38.20;101277.97;5037579;28;48729;-74
2022/06/09 07:26:05;;;;;;;;;8.00;7.00;;;;;26.14;37.09;101286.84;5025560;28;45440;-75
2022/06/09 07:28:31;;;;;;;;;8.00;8.00;;;;;26.23;36.12;101252.75;5026924;28;45494;-76
2022/06/09 07:30:56;;;;;;;;;15.00;12.00;;;;;26.31;35.32;101236.03;5023472;28;45412;-76
2022/06/09 07:33:25;;;;;;;;;2.00;1.00;;;;;26.54;35.79;101270.69;5024156;28;45602;-78
2022/06/09 07:35:53;;;;;;;;;6.00;5.00;;;;;26.66;35.46;101290.63;5030887;28;45396;-74
2022/06/09 07:38:19;;;;;;;;;10.00;10.00;;;;;26.94;34.85;101298.06;5036553;28;45434;-77
2022/06/09 07:40:44;;;;;;;;;5.33;5.33;;;;;27.30;34.44;101307.06;5032112;28;45187;-76
2022/06/09 07:43:11;;;;;;;;;5.67;5.00;;;;;27.12;34.28;101315.41;5015077;28;46661;-76
2022/06/09 07:45:38;;;;;;;;;5.67;4.67;;;;;26.92;34.79;101292.00;5030480;28;45421;-76
2022/06/09 07:48:04;;;;;;;;;6.00;5.00;;;;;27.66;33.64;101302.34;5025533;28;45633;-77
2022/06/09 07:50:31;;;;;;;;;6.33;5.67;;;;;28.06;32.41;101299.53;5050145;28;45510;-79
2022/06/09 07:52:57;;;;;;;;;8.33;4.33;;;;;27.91;32.35;101321.94;5032195;28;47643;-74
2022/06/09 07:55:22;;;;;;;;;3.67;2.67;;;;;27.40;33.31;101317.34;5034103;28;45468;-77
2022/06/09 07:57:48;;;;;;;;;4.67;4.00;;;;;26.41;34.00;101256.44;5030947;28;45590;-77
2022/06/09 08:00:14;;;;;;;;;6.00;5.00;;;;;25.89;35.24;101257.03;5029607;28;45418;-73
2022/06/09 08:02:41;;;;;;;;;4.33;3.00;;;;;26.19;36.31;101314.22;5033355;28;46575;-74
2022/06/09 08:05:07;;;;;;;;;5.33;4.33;;;;;26.66;35.36;101317.88;5032364;28;45471;-76
2022/06/09 08:07:32;;;;;;;;;2.67;1.00;;;;;27.25;33.97;101320.59;5044402;28;45358;-78
2022/06/09 08:09:58;;;;;;;;;3.00;3.00;;;;;27.71;33.59;101307.91;5030066;28;45554;-72
2022/06/09 08:12:23;;;;;;;;;5.00;4.33;;;;;27.67;32.61;101192.84;5032146;28;46413;-74
2022/06/09 08:14:49;;;;;;;;;2.33;2.33;;;;;28.62;30.90;101260.25;5021424;28;45796;-73
2022/06/09 08:17:17;;;;;;;;;4.00;4.00;;;;;28.75;30.02;101221.59;5029455;28;45327;-74
2022/06/09 08:19:44;;;;;;;;;5.00;5.00;;;;;29.50;28.65;101291.34;5032511;28;45769;-73
2022/06/09 08:22:10;;;;;;;;;3.00;3.00;;;;;30.20;27.92;101336.22;5030341;28;46977;-73
2022/06/09 08:24:36;;;;;;;;;3.00;3.00;;;;;30.36;27.94;101307.00;5034191;28;45505;-74
2022/06/09 08:27:01;;;;;;;;;4.00;4.00;;;;;30.35;27.09;101237.59;5019317;28;45479;-72
2022/06/09 08:29:27;;;;;;;;;3.33;3.33;;;;;31.37;26.74;101331.59;5021481;28;45575;-73
2022/06/09 08:31:53;;;;;;;;;6.33;5.33;;;;;30.83;27.25;101219.25;5023084;28;45702;-71
2022/06/09 08:34:19;;;;;;;;;8.00;3.67;;;;;31.45;27.21;101342.09;5029408;28;45447;-74
2022/06/09 08:36:44;;;;;;;;;6.00;3.00;;;;;31.32;26.98;101353.56;5018440;28;45385;-73
2022/06/09 08:39:10;;;;;;;;;2.33;2.33;;;;;31.18;26.94;101322.97;5017324;28;45514;-72
2022/06/09 08:42:17;;;;;;;;;4.33;4.33;;;;;31.66;26.75;101351.22;5031826;28;46944;-73
2022/06/09 08:44:50;;;;;;;;;2.00;2.00;;;;;32.04;25.71;101349.97;5014476;28;45995;-71
2022/06/09 08:47:40;;;;;;;;;3.00;2.00;;;;;31.94;25.79;101276.50;5020120;28;46234;-72
2022/06/09 08:50:12;;;;;;;;;4.33;4.33;;;;;32.82;24.83;101350.56;5022968;28;45483;-73
2022/06/09 08:53:05;;;;;;;;;6.00;3.00;;;;;33.15;24.77;101345.53;5032231;28;46455;-76
2022/06/09 08:56:06;;;;;;;;;4.67;3.67;;;;;33.54;24.08;101342.94;5008776;28;45390;-73
2022/06/09 08:59:02;;;;;;;;;4.67;3.67;;;;;33.47;23.01;101323.97;5016075;28;45522;-74
2022/06/09 09:01:45;;;;;;;;;1.00;1.00;;;;;33.02;22.87;101267.06;5024366;28;45499;-71
2022/06/09 09:04:10;;;;;;;;;3.00;3.00;;;;;32.76;23.40;101262.72;5024855;28;45493;-74
2022/06/09 09:06:43;;;;;;;;;2.67;2.67;;;;;33.05;23.65;101340.09;5032280;28;45479;-73
2022/06/09 09:09:12;;;;;;;;;6.33;6.33;;;;;33.02;23.64;101338.69;5021496;28;45741;-72
2022/06/09 09:12:05;;;;;;;;;3.00;3.00;;;;;32.76;23.59;101346.16;5030346;28;45510;-76
2022/06/09 09:14:59;;;;;;;;;5.33;3.00;;;;;32.69;24.43;101340.13;5035025;28;47473;-72
2022/06/09 09:17:53;;;;;;;;;4.33;3.00;;;;;32.98;23.17;101343.94;5019603;28;45523;-72
2022/06/09 09:20:58;;;;;;;;;4.00;1.67;;;;;33.58;22.92;101331.06;5031139;28;45570;-72
2022/06/09 09:23:46;;;;;;;;;3.33;2.00;;;;;33.28;22.12;101273.31;5007438;28;45431;-72
2022/06/09 09:26:27;;;;;;;;;5.00;2.00;;;;;33.47;22.20;101241.25;5041382;28;48994;-73
2022/06/09 09:29:08;;;;;;;;;3.00;2.00;;;;;33.40;21.76;101282.06;5025718;28;45517;-72
2022/06/09 09:31:46;;;;;;;;;3.00;2.00;;;;;33.15;22.63;101346.38;5025473;28;45390;-71
2022/06/09 09:34:16;;;;;;;;;2.00;2.00;;;;;32.41;24.08;101311.22;5027598;28;45664;-74
2022/06/09 09:36:46;;;;;;;;;3.00;3.00;;;;;32.10;24.83;101354.38;5024018;28;46155;-72
2022/06/09 09:39:42;;;;;;;;;1.00;1.00;;;;;31.47;25.06;101350.88;5018709;28;45518;-72
2022/06/09 09:42:19;;;;;;;;;3.00;3.00;;;;;30.51;25.76;101283.25;5021317;28;45457;-74
2022/06/09 09:45:00;;;;;;;;;3.00;2.33;;;;;30.97;25.72;101348.66;5034581;28;45275;-74
2022/06/09 09:47:28;;;;;;;;;5.00;5.00;;;;;30.60;25.89;101327.50;5032446;28;46596;-72
2022/06/09 09:50:01;;;;;;;;;4.00;4.00;;;;;29.80;26.93;101229.69;5029817;28;45622;-74
2022/06/09 09:52:40;;;;;;;;;2.33;2.33;;;;;31.00;25.72;101348.94;5028920;28;45650;-73
2022/06/09 09:55:27;;;;;;;;;4.00;4.00;;;;;31.21;24.94;101354.59;5037256;28;46053;-72
2022/06/09 09:58:19;;;;;;;;;4.00;1.33;;;;;31.08;24.87;101347.63;5030525;28;45718;-73
2022/06/09 10:00:48;;;;;;;;;6.67;3.67;;;;;31.37;24.88;101353.56;5019104;28;45502;-73
2022/06/09 10:09:12;;;;;;;;;1.00;1.00;;;;;31.18;25.08;101348.53;5045981;28;45790;-72
2022/06/09 10:14:38;;;;;;;;;2.00;2.00;;;;;30.10;26.37;101369.03;5031254;28;45348;-74
2022/06/09 10:17:23;;;;;;;;;6.00;3.33;;;;;29.30;27.29;101343.94;5038486;28;45334;-73
2022/06/09 10:19:53;;;;;;;;;2.33;2.33;;;;;29.05;28.56;101362.75;5036741;28;45802;-73
2022/06/09 10:22:22;;;;;;;;;3.33;2.00;;;;;28.69;28.55;101388.72;5042169;28;45804;-74
2022/06/09 10:25:02;;;;;;;;;7.00;5.33;;;;;28.12;28.70;101354.06;5047619;28;45396;-76
2022/06/09 10:27:34;;;;;;;;;3.33;2.00;;;;;27.70;28.75;101380.00;5030175;28;45574;-74
2022/06/09 10:30:12;;;;;;;;;21.67;19.67;;;;;26.85;28.96;101315.88;5023150;28;46322;-73
2022/06/09 10:32:56;;;;;;;;;3.00;3.00;;;;;26.97;29.81;101379.44;5026921;28;45570;-74
2022/06/09 10:35:39;;;;;;;;;3.67;1.67;;;;;26.50;30.73;101355.94;5034938;28;45519;-73
2022/06/09 10:38:19;;;;;;;;;5.00;5.00;;;;;26.34;31.18;101350.06;5027245;28;45225;-72
2022/06/09 10:40:49;;;;;;;;;5.00;4.00;;;;;26.13;31.33;101328.78;5032434;28;46243;-73
2022/06/09 10:43:20;;;;;;;;;7.00;6.33;;;;;25.80;31.18;101296.56;5028412;28;45581;-72
2022/06/09 10:46:00;;;;;;;;;2.67;2.67;;;;;25.75;31.62;101283.63;5026259;28;45897;-84
2022/06/09 10:57:56;;;;;;;;;3.00;2.00;;;;;26.40;31.46;101389.19;5022872;28;45539;-74
2022/06/09 11:00:30;;;;;;;;;4.00;3.00;;;;;26.23;31.38;101361.78;5023223;28;45556;-76
2022/06/09 11:02:59;;;;;;;;;3.00;3.00;;;;;26.22;31.71;101354.63;5028759;28;47565;-72
2022/06/09 11:06:09;;;;;;;;;14.00;13.00;;;;;26.53;32.18;101390.91;5018871;28;45562;-72
2022/06/09 11:08:53;;;;;;;;;1.67;1.67;;;;;26.58;31.69;101396.47;4969582;28;45392;-74
2022/06/09 11:11:37;;;;;;;;;5.00;5.00;;;;;26.55;31.30;101399.69;5030617;28;45380;-73
2022/06/09 11:14:15;;;;;;;;;3.00;3.00;;;;;26.23;31.27;101345.41;5019062;28;46489;-73
2022/06/09 11:16:50;;;;;;;;;9.67;9.33;;;;;26.57;30.92;101412.00;5027045;28;45291;-73
2022/06/09 11:19:40;;;;;;;;;6.33;5.67;;;;;26.56;31.07;101406.78;5027821;28;45367;-76
2022/06/09 11:22:18;;;;;;;;;3.00;3.00;;;;;26.31;31.26;101361.41;5027225;28;45259;-72
2022/06/09 11:24:55;;;;;;;;;1.67;1.00;;;;;26.62;30.82;101414.03;5025279;28;46571;-73
2022/06/09 11:27:33;;;;;;;;;2.00;2.00;;;;;26.67;30.87;101406.84;5019390;28;45463;-72
2022/06/09 11:30:04;;;;;;;;;4.00;2.33;;;;;26.76;30.24;101404.59;5029199;28;45554;-74
2022/06/09 11:32:40;;;;;;;;;4.00;3.00;;;;;26.73;29.79;101405.06;5026501;28;45749;-73
2022/06/09 11:35:17;;;;;;;;;2.00;2.00;;;;;26.66;30.26;101390.69;5022497;28;46025;-72
2022/06/09 11:37:48;;;;;;;;;3.33;3.33;;;;;26.79;30.40;101409.56;5034421;28;45270;-75
2022/06/09 11:40:34;;;;;;;;;2.00;2.00;;;;;26.81;30.50;101406.59;5036194;28;45485;-74
2022/06/09 11:43:35;;;;;;;;;3.00;3.00;;;;;26.82;29.80;101405.53;5021156;28;45515;-76
2022/06/09 11:46:09;;;;;;;;;3.00;2.00;;;;;26.85;29.91;101414.09;5035803;28;47987;-73
2022/06/09 11:48:42;;;;;;;;;3.33;2.33;;;;;26.86;29.54;101410.31;5020987;28;45498;-75
2022/06/09 11:51:08;;;;;;;;;5.33;5.33;;;;;26.15;29.39;101293.94;5032635;28;45538;-77
2022/06/09 11:53:46;;;;;;;;;3.00;2.00;;;;;26.68;29.63;101378.50;5018860;28;45371;-75
2022/06/09 11:56:43;;;;;;;;;2.00;2.00;;;;;26.88;29.70;101402.72;5026491;28;46586;-77
2022/06/09 11:59:11;;;;;;;;;7.33;6.00;;;;;26.74;29.88;101395.81;5018835;28;45547;-75
2022/06/09 12:01:39;;;;;;;;;2.00;2.00;;;;;26.89;29.48;101404.38;5029574;28;45576;-74
2022/06/09 12:04:10;;;;;;;;;4.00;3.00;;;;;26.95;29.87;101403.41;5035448;28;45611;-74
2022/06/09 12:06:57;;;;;;;;;2.00;2.00;;;;;26.96;29.70;101405.06;5028099;28;46012;-75
2022/06/09 12:10:05;;;;;;;;;2.33;2.33;;;;;26.90;29.72;101394.28;5037276;28;45586;-76